Thunder radar more information blitzortung!


Radar de pluja more information rain snow radar


Visita la nostra xarxa de llocs de meteo:

Template documentation
and downloads

And another site



No particular awareness of the weather is required.    There are no Weather-warnings

Pagina Historial Weather Underground text

Diari Resum Setembre 8, 2017 Unitats:  Imperial    Mètric   Tant
« Previous Dia
SegĂźent Dia »
Diari Setmana Mensual Anual Personalitzada
  Maxima: Minima: Media:
Temperatura: 78.4 °F 61.3 °F 71.4 °F
Punt de rosada: 61.2 °F 52.9 °F 55.8 °F
Humitat: 77 % 44 % 59 %
Wind Speed: 12.8 mph 0 mph 4.5 mph
RĂ fegues de vent: 12.8 mph - -
Vent:- - SE
Pression baro: 30 in 29.7 in -
Precipitacions: 0 in    
Historical Graphs
 
 
Dades de taula per Setembre 8, 2017
Temps Temperatura Punt de rosada Pression baro Vent Wind Speed RĂ fegues de vent Humitat Rainfall Rate (Hourly)
00:01 67.6 °F 55.6 °F 30 in West 2.3 mph 2.3 mph 65 % 0 in
00:06 67.5 °F 55.2 °F 30 in West 1.4 mph 1.4 mph 65 % 0 in
10:29 61.3 °F 54.1 °F 29.9 in West 1.2 mph   77 % 0 in
10:30 61.3 °F 54.1 °F 29.9 in West 1.2 mph   77 % 0 in
10:31 61.3 °F 54.1 °F 29.9 in West 1.2 mph   77 % 0 in
10:36 66.6 °F 56.1 °F 30 in West 1.4 mph   69 % 0 in
10:41 66.9 °F 56.5 °F 30 in SSE 2.3 mph 2.3 mph 69 % 0 in
10:46 67.1 °F 56.1 °F 30 in Calm     68 % 0 in
10:51 68 °F 56.7 °F 30 in ENE 3.5 mph 3.5 mph 67 % 0 in
10:56 68.2 °F 56.5 °F 30 in NE 3.5 mph 3.5 mph 66 % 0 in
11:01 68.7 °F 56.8 °F 30 in ENE 3.5 mph 3.5 mph 66 % 0 in
11:06 68.7 °F 56.8 °F 30 in East 3.5 mph 3.5 mph 66 % 0 in
11:11 69.4 °F 57.6 °F 30 in NE 3.5 mph 3.5 mph 66 % 0 in
11:16 69.4 °F 57.6 °F 30 in ENE 3.5 mph 3.5 mph 66 % 0 in
11:21 70 °F 58.1 °F 30 in ENE 3.5 mph 3.5 mph 66 % 0 in
11:26 70.7 °F 58.8 °F 30 in NW 2.3 mph 2.3 mph 66 % 0 in
11:31 71.1 °F 58.6 °F 30 in ENE 3.5 mph 3.5 mph 65 % 0 in
11:36 71.8 °F 58.8 °F 30 in ENE 6 mph 6 mph 64 % 0 in
11:41 72 °F 59.2 °F 30 in NNE 5.8 mph 5.8 mph 64 % 0 in
11:46 71.8 °F 58.8 °F 30 in SW 5.8 mph 5.8 mph 64 % 0 in
11:51 72.5 °F 59.5 °F 30 in NNE 6.9 mph 6.9 mph 64 % 0 in
11:56 72.7 °F 59.7 °F 30 in NE 5.6 mph 5.6 mph 64 % 0 in
12:01 72.9 °F 59.2 °F 30 in SSE 5.8 mph 5.8 mph 62 % 0 in
12:06 73.8 °F 59.9 °F 30 in NNE 3.8 mph 3.8 mph 62 % 0 in
12:11 73.4 °F 59.5 °F 29.9 in SW 2.6 mph 2.6 mph 62 % 0 in
12:16 75 °F 61.2 °F 29.9 in WNW 2.3 mph 2.3 mph 62 % 0 in
12:21 74.7 °F 60.3 °F 29.9 in East 4.9 mph 4.9 mph 61 % 0 in
12:26 73.6 °F 59.7 °F 29.9 in ESE 5.8 mph 5.8 mph 62 % 0 in
12:31 73.2 °F 59.4 °F 29.9 in East 6.9 mph 6.9 mph 62 % 0 in
12:36 73.4 °F 59.2 °F 29.9 in SE 5.8 mph 5.8 mph 61 % 0 in
12:41 74.1 °F 60.3 °F 29.9 in SSE 6 mph 6 mph 62 % 0 in
12:46 74.1 °F 59.7 °F 29.9 in South 5.8 mph 5.8 mph 61 % 0 in
12:51 73.8 °F 59.9 °F 29.9 in ESE 6.9 mph 6.9 mph 62 % 0 in
12:56 73.8 °F 59.9 °F 29.9 in East 4.6 mph 4.6 mph 62 % 0 in
13:01 74.5 °F 61.2 °F 29.9 in SE 4.6 mph 4.7 mph 63 % 0 in
13:06 74.8 °F 61 °F 29.9 in ESE 6.9 mph 6.9 mph 62 % 0 in
13:11 74.3 °F 60.1 °F 29.9 in East 8.1 mph 8.1 mph 61 % 0 in
13:16 74.5 °F 60.1 °F 29.9 in ESE 5.8 mph 5.8 mph 61 % 0 in
13:21 74.5 °F 60.1 °F 29.9 in SSE 5.8 mph 5.8 mph 61 % 0 in
13:26 74.3 °F 60.4 °F 29.9 in WSW 6.9 mph 6.9 mph 62 % 0 in
13:31 73.9 °F 60.1 °F 29.9 in South 9.2 mph 9.2 mph 62 % 0 in
13:36 74.1 °F 60.3 °F 29.9 in ESE 9.2 mph 9.2 mph 62 % 0 in
13:41 74.1 °F 59.7 °F 29.9 in East 10.4 mph 10.4 mph 61 % 0 in
13:46 74.1 °F 59.7 °F 29.9 in East 4.9 mph 4.9 mph 61 % 0 in
13:51 74.5 °F 60.1 °F 29.9 in East 5.9 mph 5.9 mph 61 % 0 in
13:56 74.5 °F 60.1 °F 29.9 in South 8.1 mph 8.1 mph 61 % 0 in
14:01 74.8 °F 60.4 °F 29.9 in SSW 6.9 mph 6.9 mph 61 % 0 in
14:06 74.5 °F 60.1 °F 29.9 in ENE 8.1 mph 8.1 mph 61 % 0 in
14:11 74.1 °F 59.7 °F 29.9 in ESE 5.8 mph 5.8 mph 61 % 0 in
14:16 74.3 °F 59.5 °F 29.9 in East 12.1 mph 12.1 mph 60 % 0 in
14:21 74.5 °F 59.7 °F 29.9 in ESE 6.9 mph 6.9 mph 60 % 0 in
14:26 74.8 °F 60.1 °F 29.9 in ESE 8.5 mph 8.5 mph 60 % 0 in
14:31 75.7 °F 59.9 °F 29.9 in SW 6.9 mph 6.9 mph 58 % 0 in
14:36 75.2 °F 59.4 °F 29.9 in NE 10.4 mph 10.4 mph 58 % 0 in
14:41 75.2 °F 59.9 °F 29.9 in SE 9.8 mph 9.8 mph 59 % 0 in
14:46 75.2 °F 58.8 °F 29.9 in ESE 10.4 mph 10.4 mph 57 % 0 in
14:51 75.6 °F 59.4 °F 29.9 in East 9.8 mph 9.8 mph 57 % 0 in
14:56 75 °F 58.3 °F 29.9 in ENE 9.2 mph 9.2 mph 56 % 0 in
15:01 75 °F 58.3 °F 29.9 in SE 9.2 mph 9.2 mph 56 % 0 in
15:06 75.7 °F 58.5 °F 29.9 in East 6.9 mph 6.9 mph 55 % 0 in
15:11 75.9 °F 58.1 °F 29.9 in ESE 9.2 mph 9.2 mph 54 % 0 in
15:16 76.3 °F 57.9 °F 29.9 in SSE 10.4 mph 10.4 mph 53 % 0 in
15:21 76.3 °F 57.9 °F 29.8 in ESE 9.2 mph 9.2 mph 53 % 0 in
15:26 75.7 °F 56.8 °F 29.8 in East 10.4 mph 10.4 mph 52 % 0 in
15:31 75.6 °F 56.7 °F 29.8 in ESE 5.9 mph 5.9 mph 52 % 0 in
15:36 75.9 °F 57 °F 29.9 in South 9.2 mph 9.2 mph 52 % 0 in
15:41 75.7 °F 57.4 °F 29.9 in SE 5.8 mph 5.9 mph 53 % 0 in
15:46 76.3 °F 57.4 °F 29.9 in East 9.2 mph 9.2 mph 52 % 0 in
15:51 76.3 °F 56.8 °F 29.9 in ENE 9.2 mph 9.2 mph 51 % 0 in
15:56 76.1 °F 55.6 °F 29.9 in ESE 12.7 mph 12.7 mph 49 % 0 in
16:01 76.3 °F 55.8 °F 29.9 in ESE 10.4 mph 10.4 mph 49 % 0 in
16:06 76.1 °F 55 °F 29.9 in ESE 11.5 mph 11.5 mph 48 % 0 in
16:11 76.5 °F 55.2 °F 29.9 in ESE 9.2 mph 9.2 mph 48 % 0 in
16:16 76.8 °F 55.6 °F 29.9 in ESE 9.2 mph 9.2 mph 48 % 0 in
16:21 76.8 °F 55.6 °F 29.9 in SE 8.1 mph 8.1 mph 48 % 0 in
16:26 77.2 °F 55.4 °F 29.9 in SSE 12.7 mph 12.7 mph 47 % 0 in
16:31 77.7 °F 55.9 °F 29.9 in ESE 9.2 mph 9.2 mph 47 % 0 in
16:36 78.4 °F 56.5 °F 29.9 in ENE 3.5 mph 3.5 mph 47 % 0 in
16:41 77.5 °F 55 °F 29.9 in East 8.1 mph 8.1 mph 46 % 0 in
16:46 77 °F 54 °F 29.9 in ENE 10.4 mph 10.4 mph 45 % 0 in
16:51 76.6 °F 54.3 °F 29.8 in ESE 6.9 mph 6.9 mph 46 % 0 in
16:52 76.8 °F 54.5 °F 29.8 in ESE 6.9 mph 6.9 mph 46 % 0 in
16:57 77.2 °F 54.1 °F 29.8 in ESE 9.2 mph 9.2 mph 45 % 0 in
17:02 76.6 °F 54.3 °F 29.8 in East 11.5 mph 11.5 mph 46 % 0 in
17:07 76.6 °F 53.8 °F 29.8 in ESE 10.4 mph 10.4 mph 45 % 0 in
17:12 76.8 °F 54 °F 29.8 in ESE 11.5 mph 11.5 mph 45 % 0 in
17:17 77 °F 53.4 °F 29.8 in ESE 12.3 mph 12.3 mph 44 % 0 in
17:22 76.3 °F 53.4 °F 29.8 in SE 12.7 mph 12.7 mph 45 % 0 in
17:27 75.9 °F 54.1 °F 29.8 in ESE 8.1 mph 8.1 mph 47 % 0 in
17:32 75.9 °F 54.1 °F 29.8 in ENE 12.8 mph 12.8 mph 47 % 0 in
17:37 75.7 °F 54.1 °F 29.8 in ESE 10.4 mph 10.4 mph 47 % 0 in
17:42 75.7 °F 54.1 °F 29.8 in ESE 8.1 mph 8.1 mph 47 % 0 in
17:47 75.7 °F 54.1 °F 29.8 in East 6.9 mph 6.9 mph 47 % 0 in
17:52 75.7 °F 54.7 °F 29.8 in SSE 8.1 mph 8.1 mph 48 % 0 in
17:57 75.7 °F 54.7 °F 29.8 in ESE 8.1 mph 8.1 mph 48 % 0 in
18:02 76.1 °F 55 °F 29.8 in South 4.6 mph 4.6 mph 48 % 0 in
18:07 75.9 °F 54.9 °F 29.8 in SSE 4.9 mph 5.4 mph 48 % 0 in
18:12 75.2 °F 54.7 °F 29.8 in ENE 9.2 mph 9.2 mph 49 % 0 in
18:17 75.2 °F 54.7 °F 29.8 in ENE 5.8 mph 5.8 mph 49 % 0 in
18:22 74.8 °F 54.3 °F 29.8 in East 8.1 mph 8.1 mph 49 % 0 in
18:27 74.7 °F 54.9 °F 29.8 in ESE 8.1 mph 8.1 mph 50 % 0 in
18:32 74.3 °F 54.5 °F 29.8 in SE 8.1 mph 8.1 mph 50 % 0 in
18:37 74.5 °F 54.7 °F 29.8 in East 7.8 mph 7.8 mph 50 % 0 in
18:42 74.1 °F 54.3 °F 29.8 in ESE 8.1 mph 8.1 mph 50 % 0 in
18:47 73.9 °F 54.1 °F 29.8 in ESE 6.2 mph 6.2 mph 50 % 0 in
18:52 73.9 °F 54.1 °F 29.8 in East 9.2 mph 9.2 mph 50 % 0 in
18:57 73.8 °F 54 °F 29.8 in ESE 6.9 mph 6.9 mph 50 % 0 in
19:02 73.8 °F 54.5 °F 29.8 in ESE 8.5 mph 8.5 mph 51 % 0 in
19:07 73.6 °F 54.3 °F 29.8 in East 4.7 mph 4.7 mph 51 % 0 in
19:12 73.6 °F 54.9 °F 29.8 in ESE 5.8 mph 5.8 mph 52 % 0 in
19:15 66.7 °F 53.8 °F 30 in Calm     63 % 0 in
19:17 73.4 °F 54.7 °F 29.8 in ESE 5.8 mph 5.8 mph 52 % 0 in
19:22 73.4 °F 54.7 °F 29.8 in SSE 6.2 mph 6.2 mph 52 % 0 in
19:25 66.7 °F 53.8 °F 29.8 in Calm     63 % 0 in
19:27 73 °F 54.9 °F 29.8 in ESE 6.9 mph 6.9 mph 53 % 0 in
19:32 73 °F 54.9 °F 29.8 in ESE 5.8 mph 5.8 mph 53 % 0 in
19:35 66.4 °F 53.4 °F 29.8 in Calm     63 % 0 in
19:37 72.9 °F 55.2 °F 29.8 in East 6.9 mph 6.9 mph 54 % 0 in
19:38 72.9 °F 55.2 °F 29.8 in ESE 5.8 mph 5.8 mph 54 % 0 in
19:43 72.7 °F 55 °F 29.8 in ESE 6 mph 6 mph 54 % 0 in
19:45 66.2 °F 53.2 °F 29.8 in Calm   1 mph 63 % 0 in
19:48 72.5 °F 55.4 °F 29.8 in SE 4.6 mph 4.6 mph 55 % 0 in
19:53 72.3 °F 55.2 °F 29.8 in ESE 5.8 mph 5.8 mph 55 % 0 in
19:55 66.2 °F 53.2 °F 29.8 in Calm     63 % 0 in
19:58 72.1 °F 55 °F 29.8 in ESE 4.9 mph 4.9 mph 55 % 0 in
20:03 72.1 °F 55 °F 29.8 in East 3.1 mph 3.1 mph 55 % 0 in
20:05 66.2 °F 53.2 °F 29.8 in Calm     63 % 0 in
20:08 72 °F 54.9 °F 29.8 in ESE 4.6 mph 4.6 mph 55 % 0 in
20:13 71.8 °F 54.7 °F 29.8 in ESE 2.3 mph 2.3 mph 55 % 0 in
20:15 66.6 °F 53.6 °F 29.8 in SW 1 mph 2 mph 63 % 0 in
20:18 71.6 °F 55 °F 29.8 in ESE 4.3 mph 4.3 mph 56 % 0 in
20:23 71.6 °F 54.7 °F 29.8 in East 2.3 mph 2.3 mph 55 % 0 in
20:25 66.7 °F 54.1 °F 29.8 in Calm   1 mph 64 % 0 in
20:28 71.2 °F 54.7 °F 29.8 in SW 2.3 mph 2.3 mph 56 % 0 in
20:33 70.9 °F 54.9 °F 29.8 in SSW 1.2 mph   57 % 0 in
20:35 66.7 °F 54.1 °F 29.8 in Calm   1 mph 64 % 0 in
20:38 70.7 °F 54.7 °F 29.8 in Calm     57 % 0 in
20:43 70.5 °F 54.5 °F 29.8 in Calm     57 % 0 in
20:45 66.4 °F 53.8 °F 29.8 in WSW 1 mph 2 mph 64 % 0 in
20:48 70.3 °F 54.3 °F 29.8 in Calm     57 % 0 in
20:53 70.2 °F 54.1 °F 29.8 in Calm     57 % 0 in
20:55 66 °F 54 °F 29.8 in SW 2 mph 2 mph 65 % 0 in
20:58 70.2 °F 54.1 °F 29.8 in Calm     57 % 0 in
21:03 69.8 °F 54 °F 29.8 in Calm     57 % 0 in
21:05 65.8 °F 54.1 °F 29.8 in Calm   1 mph 66 % 0 in
21:08 69.8 °F 54 °F 29.8 in Calm     57 % 0 in
21:13 69.4 °F 54 °F 29.8 in SW 2.4 mph 2.4 mph 58 % 0 in
21:15 65.5 °F 53.8 °F 29.8 in Calm   1 mph 66 % 0 in
21:18 69.1 °F 53.8 °F 29.8 in SSW 2.3 mph 2.3 mph 58 % 0 in
21:23 68.9 °F 53.4 °F 29.8 in West 2.3 mph 2.3 mph 58 % 0 in
21:25 65.5 °F 53.8 °F 29.8 in WSW 1 mph 2 mph 66 % 0 in
21:28 68.7 °F 53.2 °F 29.8 in SW 1.6 mph   58 % 0 in
21:33 68.5 °F 53.2 °F 29.8 in SW 2.3 mph   58 % 0 in
21:35 65.5 °F 54.1 °F 29.8 in NE 1 mph 2 mph 67 % 0 in
21:38 68.4 °F 53.1 °F 29.8 in WSW 1.2 mph   58 % 0 in
21:43 68.4 °F 53.1 °F 29.8 in Calm     58 % 0 in
21:45 65.5 °F 54.1 °F 29.7 in Calm   2 mph 67 % 0 in
21:48 68.2 °F 52.9 °F 29.8 in Calm     58 % 0 in
21:53 68 °F 53.1 °F 29.8 in WSW 1.2 mph   59 % 0 in
21:55 65.5 °F 54.7 °F 29.8 in Calm   2 mph 68 % 0 in
21:58 68 °F 53.1 °F 29.8 in Calm     59 % 0 in
22:03 67.8 °F 53.4 °F 29.8 in Calm     60 % 0 in
22:05 65.7 °F 55.2 °F 29.8 in Calm     69 % 0 in
22:08 67.6 °F 53.2 °F 29.8 in Calm     60 % 0 in
22:13 67.5 °F 53.1 °F 29.8 in Calm     60 % 0 in
22:15 65.7 °F 55.2 °F 29.7 in NNE 1 mph 2 mph 69 % 0 in
22:18 67.5 °F 53.1 °F 29.8 in Calm     60 % 0 in
22:23 67.3 °F 52.9 °F 29.8 in Calm     60 % 0 in
22:25 65.7 °F 55.6 °F 29.7 in NNE 1 mph 2 mph 70 % 0 in
22:28 67.3 °F 52.9 °F 29.8 in NW 2.3 mph 2.3 mph 60 % 0 in
22:33 67.5 °F 53.1 °F 29.8 in NW 1.2 mph 1.2 mph 60 % 0 in
22:35 65.5 °F 55.4 °F 29.7 in NNE 1 mph 1 mph 70 % 0 in
22:38 67.5 °F 53.1 °F 29.8 in Calm     60 % 0 in
22:43 67.5 °F 53.4 °F 29.8 in Calm     61 % 0 in
22:45 65.5 °F 55.4 °F 29.7 in NNE 1 mph 3 mph 70 % 0 in
22:48 67.5 °F 53.4 °F 29.8 in Calm     61 % 0 in
22:53 67.3 °F 53.4 °F 29.8 in Calm     61 % 0 in
22:55 65.3 °F 55.8 °F 29.7 in NE 3 mph 4 mph 71 % 0 in
22:58 67.5 °F 53.4 °F 29.8 in Calm     61 % 0 in
23:03 67.5 °F 53.1 °F 29.8 in Calm     60 % 0 in
23:05 65.1 °F 55.6 °F 29.7 in NE 3 mph 4 mph 71 % 0 in
23:08 67.6 °F 53.8 °F 29.8 in Calm     61 % 0 in
23:13 67.8 °F 53.4 °F 29.8 in NW 1.4 mph 1.4 mph 60 % 0 in
23:15 65.1 °F 55.9 °F 29.7 in NNE 2 mph 4 mph 72 % 0 in
23:18 68 °F 53.1 °F 29.8 in NW 1.2 mph 1.2 mph 59 % 0 in
23:23 68 °F 53.6 °F 29.8 in Calm     60 % 0 in
23:25 64.9 °F 55.8 °F 29.7 in NE 3 mph 4 mph 72 % 0 in
23:28 68 °F 53.6 °F 29.8 in Calm     60 % 0 in
23:33 68 °F 53.6 °F 29.8 in Calm     60 % 0 in
23:35 65.1 °F 56.1 °F 29.7 in NNE 1 mph 4 mph 73 % 0 in
23:38 68 °F 53.6 °F 29.8 in Calm     60 % 0 in
23:43 67.8 °F 54 °F 29.8 in SSW 1.2 mph 1.4 mph 61 % 0 in
23:45 65.1 °F 56.1 °F 29.7 in NNW 1 mph 3 mph 73 % 0 in
23:48 67.3 °F 53.4 °F 29.8 in SSW 1.2 mph 1.2 mph 61 % 0 in
23:53 66.9 °F 53.1 °F 29.8 in SW 2 mph   61 % 0 in
23:55 65.1 °F 56.1 °F 29.7 in NNW 1 mph 2 mph 73 % 0 in
23:58 66.7 °F 52.9 °F 29.8 in SW 1.4 mph 1.4 mph 61 % 0 in
Meteo Sesrovires
Elogis d' Weather Underground - 3.5 mb

Guio original per  Jim McMurry - jmcmurry@mwt.net Adaptat per a la plantilla per  Wim van der Kuil - Leuven-Template.eu

Trobareu la nostra informacio del temps tambe a:

Weather Underground

AWEKAS